Time;durP1;ratioP1;P1;durP2;ratioP2;P2;SDS_P1;SDS_P2;PMS_P1;PMS_P2;Temp;Humidity;BMP_temperature;BMP_pressure;BME280_temperature;BME280_humidity;BME280_pressure;Samples;Min_cycle;Max_cycle;Signal;HPM_P1;HPM_P2
2022/11/28 00:01:21;;;;;;;6.67;2.42;;;;;;;2.49;67.63;101663.73;1772644;80;20959;-64
2022/11/28 00:03:47;;;;;;;4.42;1.67;;;;;;;2.50;67.80;101667.60;1772994;80;21023;-65
2022/11/28 00:06:14;;;;;;;5.95;2.33;;;;;;;2.66;67.57;101671.13;1765566;80;21025;-65
2022/11/28 00:08:41;;;;;;;5.60;1.98;;;;;;;2.73;67.07;101673.50;1777637;79;21129;-65
2022/11/28 00:11:10;;;;;;;3.87;1.67;;;;;;;2.74;67.11;101674.34;1778021;79;21246;-65
2022/11/28 00:13:38;;;;;;;5.72;2.20;;;;;;;2.71;67.24;101671.85;1764839;80;20999;-65
2022/11/28 00:16:06;;;;;;;4.85;1.85;;;;;;;2.67;67.26;101678.01;1769993;80;21443;-65
2022/11/28 00:18:33;;;;;;;5.72;1.75;;;;;;;2.67;67.16;101681.91;1763490;80;21027;-65
2022/11/28 00:21:07;;;;;;;3.85;1.40;;;;;;;2.66;67.10;101684.13;1766570;80;21042;-65
2022/11/28 00:23:35;;;;;;;7.00;2.15;;;;;;;2.64;66.85;101685.45;1764149;80;21842;-65
2022/11/28 00:26:05;;;;;;;7.55;3.40;;;;;;;2.64;67.04;101690.66;1765418;80;21078;-65
2022/11/28 00:28:32;;;;;;;4.30;1.42;;;;;;;2.69;66.93;101695.70;1771768;80;21081;-65
2022/11/28 00:30:58;;;;;;;5.90;2.10;;;;;;;2.66;66.84;101692.77;1771036;79;21019;-66
2022/11/28 00:33:25;;;;;;;6.92;2.77;;;;;;;2.70;66.67;101691.77;1772779;80;21078;-66
2022/11/28 00:36:03;;;;;;;6.20;2.25;;;;;;;2.71;66.61;101696.09;1774220;80;21301;-65
2022/11/28 00:38:30;;;;;;;6.17;1.95;;;;;;;2.73;66.57;101693.00;1767031;80;21580;-65
2022/11/28 00:41:12;;;;;;;4.85;2.10;;;;;;;2.71;66.52;101684.85;1764139;80;21587;-65
2022/11/28 00:43:40;;;;;;;3.75;1.65;;;;;;;2.72;66.69;101684.81;1767793;80;21135;-65
2022/11/28 00:46:07;;;;;;;5.75;1.85;;;;;;;2.84;66.62;101684.05;1766762;80;21039;-65
2022/11/28 00:48:35;;;;;;;4.78;1.95;;;;;;;2.93;66.38;101685.13;1762640;80;21575;-65
2022/11/28 00:51:08;;;;;;;5.60;1.92;;;;;;;3.02;66.47;101682.25;1770106;80;21538;-65
2022/11/28 00:53:36;;;;;;;5.90;2.45;;;;;;;3.05;66.53;101680.87;1756846;80;21104;-65
2022/11/28 00:56:05;;;;;;;5.92;2.75;;;;;;;3.12;66.51;101681.09;1756539;80;21086;-65
2022/11/28 00:58:33;;;;;;;5.45;2.45;;;;;;;3.12;66.36;101679.80;1750254;80;21063;-65
2022/11/28 01:01:00;;;;;;;6.08;2.65;;;;;;;3.10;66.33;101675.09;1759374;80;21220;-65
2022/11/28 01:03:27;;;;;;;8.00;4.30;;;;;;;3.10;66.30;101675.09;1721312;82;21040;-65
2022/11/28 01:05:53;;;;;;;7.00;2.85;;;;;;;3.08;66.26;101680.80;1753242;80;22208;-65
2022/11/28 01:08:20;;;;;;;6.90;2.40;;;;;;;3.08;66.11;101676.89;1749847;80;22411;-65
2022/11/28 01:10:47;;;;;;;7.67;3.62;;;;;;;3.03;66.29;101674.88;1749713;80;21064;-65
2022/11/28 01:13:15;;;;;;;6.53;2.40;;;;;;;2.98;66.41;101672.39;1756965;80;21083;-65
2022/11/28 01:15:42;;;;;;;7.42;4.67;;;;;;;2.98;66.49;101672.39;1756638;80;21010;-65
2022/11/28 01:18:08;;;;;;;6.15;2.72;;;;;;;2.97;66.54;101670.67;1752159;80;21063;-65
2022/11/28 01:20:35;;;;;;;4.75;1.70;;;;;;;3.04;66.50;101680.45;1753868;79;21088;-66
2022/11/28 01:23:02;;;;;;;6.78;2.77;;;;;;;3.11;66.32;101679.84;1750775;79;21007;-65
2022/11/28 01:25:30;;;;;;;7.37;2.58;;;;;;;3.17;66.29;101674.47;1756674;80;21262;-65
2022/11/28 01:27:57;;;;;;;6.67;4.33;;;;;;;3.19;66.33;101675.73;1757356;80;21082;-66
2022/11/28 01:30:23;;;;;;;5.15;2.25;;;;;;;3.19;66.23;101677.03;1762063;80;21015;-65
2022/11/28 01:32:49;;;;;;;6.37;2.58;;;;;;;3.17;66.30;101682.28;1760568;80;21082;-65
2022/11/28 01:35:16;;;;;;;7.45;2.83;;;;;;;3.14;66.15;101683.23;1757885;80;21099;-65
2022/11/28 01:37:43;;;;;;;7.33;2.60;;;;;;;3.10;66.18;101681.59;1757638;80;22090;-66
2022/11/28 01:40:11;;;;;;;5.55;2.40;;;;;;;3.04;66.16;101683.52;1750404;80;21016;-65
2022/11/28 01:42:38;;;;;;;5.45;2.00;;;;;;;3.00;66.20;101682.75;1752167;79;21525;-65
2022/11/28 01:45:20;;;;;;;5.87;2.50;;;;;;;2.92;66.20;101683.41;1761046;80;21075;-65
2022/11/28 01:47:47;;;;;;;7.45;2.50;;;;;;;2.87;66.51;101687.42;1760147;80;21516;-66
2022/11/28 01:50:13;;;;;;;4.50;1.72;;;;;;;2.86;66.59;101683.14;1769690;79;22152;-65
2022/11/28 01:52:44;;;;;;;5.25;1.70;;;;;;;2.87;66.63;101686.12;1762361;79;21103;-65
2022/11/28 01:55:12;;;;;;;9.95;2.05;;;;;;;2.94;66.53;101690.28;1766384;79;21091;-65
2022/11/28 01:57:38;;;;;;;4.53;1.60;;;;;;;3.01;66.57;101687.06;1764762;79;21024;-66
2022/11/28 02:00:11;;;;;;;4.10;1.60;;;;;;;3.08;66.49;101688.59;1767812;79;21018;-65
2022/11/28 02:03:03;;;;;;;4.90;1.92;;;;;;;3.13;66.46;101689.31;1763447;80;21301;-65
2022/11/28 02:05:30;;;;;;;4.42;2.12;;;;;;;3.13;66.44;101689.31;1764448;80;21053;-65
2022/11/28 02:07:57;;;;;;;5.10;2.02;;;;;;;3.04;66.15;101683.52;1763717;80;21058;-65
2022/11/28 02:10:44;;;;;;;5.58;2.10;;;;;;;2.96;66.36;101685.89;1768543;80;21043;-65
2022/11/28 02:13:16;;;;;;;4.78;2.40;;;;;;;2.96;66.63;101683.28;1764319;80;21071;-65
2022/11/28 02:15:57;;;;;;;5.28;2.22;;;;;;;2.87;66.24;101682.67;1723937;82;21168;-65
2022/11/28 02:18:58;;;;;;;7.22;2.05;;;;;;;2.74;66.39;101680.42;1766243;80;21026;-65
2022/11/28 02:21:48;;;;;;;6.28;2.47;;;;;;;2.64;66.67;101688.05;1768939;80;21066;-65
2022/11/28 02:24:48;;;;;;;5.50;2.35;;;;;;;2.59;66.98;101692.06;1765908;80;21071;-65
2022/11/28 02:27:52;;;;;;;6.05;2.25;;;;;;;2.58;67.28;101690.80;1765521;80;21042;-66
2022/11/28 02:30:21;;;;;;;5.47;2.05;;;;;;;2.58;67.46;101696.00;1766833;80;21266;-65
2022/11/28 02:33:14;;;;;;;6.03;1.80;;;;;;;2.58;67.49;101703.80;1772363;80;22380;-65
2022/11/28 02:36:02;;;;;;;6.50;2.00;;;;;;;2.56;67.70;101698.63;1753887;79;21074;-65
2022/11/28 02:39:02;;;;;;;4.25;1.77;;;;;;;2.62;67.78;101699.37;1767952;80;21058;-65
2022/11/28 02:41:34;;;;;;;5.12;2.40;;;;;;;2.62;67.86;101701.51;1768829;80;21110;-66
2022/11/28 02:44:29;;;;;;;4.95;1.40;;;;;;;2.73;67.87;101705.99;1769186;80;21234;-65
2022/11/28 02:47:09;;;;;;;6.10;2.02;;;;;;;2.85;67.77;101698.77;1765062;80;21073;-65
2022/11/28 02:49:45;;;;;;;7.45;2.40;;;;;;;2.92;67.59;101704.20;1767128;80;21539;-65
2022/11/28 02:52:23;;;;;;;5.97;2.20;;;;;;;2.98;67.66;101699.69;1771670;79;21030;-65
2022/11/28 02:54:50;;;;;;;7.95;2.20;;;;;;;3.04;67.62;101699.12;1764064;80;21042;-65
2022/11/28 02:57:16;;;;;;;5.85;1.87;;;;;;;3.06;67.52;101699.92;1764571;80;21227;-65
2022/11/28 02:59:47;;;;;;;6.75;2.35;;;;;;;3.04;67.34;101702.56;1764899;79;21085;-65
2022/11/28 03:02:27;;;;;;;6.90;2.60;;;;;;;3.04;67.32;101703.02;1766952;80;21558;-65
2022/11/28 03:05:20;;;;;;;5.92;2.92;;;;;;;3.01;67.24;101706.57;1762808;80;21054;-65
2022/11/28 03:08:18;;;;;;;7.10;3.30;;;;;;;2.96;67.23;101705.84;1761184;80;21567;-65
2022/11/28 03:11:05;;;;;;;6.70;3.17;;;;;;;2.94;67.26;101703.71;1765948;80;21147;-66
2022/11/28 03:13:53;;;;;;;6.72;2.30;;;;;;;2.92;67.31;101707.65;1767275;80;21538;-66
2022/11/28 03:16:57;;;;;;;6.17;2.40;;;;;;;2.93;67.45;101707.23;1763521;80;21019;-65
2022/11/28 03:19:33;;;;;;;5.85;2.22;;;;;;;2.93;67.44;101705.47;1675970;84;21078;-65
2022/11/28 03:22:29;;;;;;;5.05;1.57;;;;;;;2.92;67.55;101710.70;1757564;80;21014;-64
2022/11/28 03:25:35;;;;;;;4.53;1.70;;;;;;;2.94;67.47;101712.39;1762741;80;21263;-65
2022/11/28 03:28:19;;;;;;;4.67;1.47;;;;;;;3.03;67.37;101711.73;1764948;79;21015;-65
2022/11/28 03:31:03;;;;;;;4.28;1.90;;;;;;;3.09;67.31;101719.34;1738852;79;21036;-65
2022/11/28 03:33:33;;;;;;;6.60;3.87;;;;;;;3.14;67.37;101718.34;1766297;79;21012;-65
2022/11/28 03:36:11;;;;;;;5.65;2.30;;;;;;;3.15;67.51;101721.33;1765604;79;21078;-65
2022/11/28 03:38:41;;;;;;;5.40;2.35;;;;;;;3.18;67.54;101718.23;1767676;80;21895;-65
2022/11/28 03:41:19;;;;;;;5.08;2.15;;;;;;;3.15;67.43;101716.13;1768606;80;21988;-66
2022/11/28 03:43:52;;;;;;;6.95;2.40;;;;;;;3.15;67.47;101728.30;1770313;79;21126;-65
2022/11/28 03:46:21;;;;;;;6.28;2.72;;;;;;;3.13;67.41;101733.99;1766111;79;21488;-65
2022/11/28 03:48:50;;;;;;;5.67;2.17;;;;;;;3.06;67.39;101730.70;1766199;80;21046;-65
2022/11/28 03:51:36;;;;;;;5.65;2.08;;;;;;;3.02;67.42;101729.52;1769521;80;21826;-65
2022/11/28 03:54:10;;;;;;;5.70;2.17;;;;;;;3.01;67.39;101733.88;1764977;79;21090;-65
2022/11/28 03:56:49;;;;;;;7.92;2.80;;;;;;;2.98;67.54;101736.55;1759621;79;21031;-65
2022/11/28 03:59:19;;;;;;;5.62;1.65;;;;;;;3.03;67.64;101732.08;1754263;79;21525;-65
2022/11/28 04:02:07;;;;;;;5.72;2.15;;;;;;;3.11;67.66;101732.73;1757947;79;21062;-65
2022/11/28 04:04:57;;;;;;;4.40;1.55;;;;;;;3.19;67.60;101736.86;1755539;80;21263;-65
2022/11/28 04:07:54;;;;;;;7.28;4.22;;;;;;;3.25;67.80;101736.24;1759915;80;21739;-65
2022/11/28 04:10:33;;;;;;;;;;;;;;;3.28;67.92;101734.02;1762620;79;21021;-65
2022/11/28 04:13:12;;;;;;;4.85;1.57;;;;;;;3.26;67.92;101734.48;1751180;80;20199;-65
2022/11/28 04:15:55;;;;;;;6.85;2.30;;;;;;;3.24;67.91;101734.98;1757114;79;21090;-65
2022/11/28 04:19:02;;;;;;;6.35;2.15;;;;;;;3.21;67.83;101737.23;1755231;79;21110;-65
2022/11/28 04:22:06;;;;;;;6.50;2.63;;;;;;;3.19;67.82;101740.30;1762453;80;20988;-65
2022/11/28 04:24:37;;;;;;;4.95;1.80;;;;;;;3.14;67.69;101744.36;1764283;80;22242;-65
2022/11/28 04:27:07;;;;;;;6.25;2.10;;;;;;;3.11;67.64;101740.95;1757708;80;22326;-66
2022/11/28 04:29:39;;;;;;;4.37;2.15;;;;;;;3.07;67.49;101736.29;1760338;80;21007;-65
2022/11/28 04:32:05;;;;;;;5.00;2.10;;;;;;;3.06;67.48;101740.23;1736920;80;21232;-65
2022/11/28 04:34:33;;;;;;;5.37;2.05;;;;;;;3.10;67.37;101744.02;1765753;80;21047;-64
2022/11/28 04:36:59;;;;;;;5.47;2.15;;;;;;;3.18;67.37;101740.34;1762644;80;20992;-65
2022/11/28 04:39:26;;;;;;;7.78;3.52;;;;;;;3.26;67.33;101744.89;1759774;80;21079;-65
2022/11/28 04:42:05;;;;;;;6.65;2.37;;;;;;;3.28;67.35;101739.22;1756832;80;21071;-65
2022/11/28 04:44:46;;;;;;;7.00;2.75;;;;;;;3.28;67.37;101746.57;1759801;79;21997;-65
2022/11/28 04:47:12;;;;;;;6.55;2.08;;;;;;;3.24;67.30;101747.53;1755919;80;21051;-65
2022/11/28 04:49:39;;;;;;;8.10;4.87;;;;;;;3.22;67.34;101754.99;1757793;80;21082;-65
2022/11/28 04:52:45;;;;;;;5.40;2.30;;;;;;;3.20;67.23;101750.28;1761007;80;21043;-64
2022/11/28 04:55:30;;;;;;;5.58;2.62;;;;;;;3.16;67.18;101745.59;1734936;80;21031;-64
2022/11/28 04:58:13;;;;;;;7.33;3.08;;;;;;;3.11;67.31;101749.64;1726487;82;21341;-63
2022/11/28 05:00:40;;;;;;;6.85;2.22;;;;;;;3.09;67.35;101754.03;1737814;80;21095;-65
2022/11/28 05:03:07;;;;;;;5.78;2.55;;;;;;;3.08;67.45;101750.17;1762233;79;21079;-65
2022/11/28 05:05:44;;;;;;;6.50;3.08;;;;;;;3.04;67.42;101751.97;1758361;79;21007;-65
2022/11/28 05:08:11;;;;;;;8.65;4.97;;;;;;;3.00;67.47;101756.86;1754472;79;21046;-65
2022/11/28 05:10:37;;;;;;;5.72;2.17;;;;;;;3.03;67.50;101761.98;1761858;80;21875;-65
2022/11/28 05:13:04;;;;;;;4.60;1.70;;;;;;;3.09;67.33;101763.13;1701604;83;21083;-65
2022/11/28 05:15:31;;;;;;;4.30;1.87;;;;;;;3.15;67.23;101759.05;1759781;79;21102;-65
2022/11/28 05:17:57;;;;;;;6.58;2.20;;;;;;;3.22;67.29;101764.94;1756800;80;21035;-65
2022/11/28 05:20:24;;;;;;;7.33;4.17;;;;;;;3.31;67.43;101762.52;1763354;80;21055;-66
2022/11/28 05:22:50;;;;;;;5.92;2.55;;;;;;;3.33;67.49;101762.91;1757775;80;21167;-65
2022/11/28 05:25:16;;;;;;;5.60;2.02;;;;;;;3.33;67.50;101764.66;1756688;79;21050;-65
2022/11/28 05:27:43;;;;;;;7.22;3.10;;;;;;;3.33;67.62;101760.30;1755952;80;21099;-65
2022/11/28 05:30:11;;;;;;;8.55;4.67;;;;;;;3.23;67.86;101758.85;1758032;80;20984;-66
2022/11/28 05:32:38;;;;;;;6.62;2.83;;;;;;;3.27;67.72;101768.27;1720034;81;21094;-66
2022/11/28 05:35:05;;;;;;;7.75;4.78;;;;;;;3.27;67.76;101768.72;1758699;80;21227;-65
2022/11/28 05:37:32;;;;;;;6.70;3.15;;;;;;;3.23;67.65;101770.56;1753043;80;21051;-65
2022/11/28 05:39:59;;;;;;;5.92;2.58;;;;;;;3.17;67.66;101777.22;1755311;80;21031;-65
2022/11/28 05:42:27;;;;;;;5.67;2.20;;;;;;;3.19;67.78;101775.87;1759918;80;21054;-66
2022/11/28 05:44:54;;;;;;;4.80;1.57;;;;;;;3.27;67.51;101781.27;1760594;79;21020;-65
2022/11/28 05:47:22;;;;;;;8.98;4.80;;;;;;;3.34;67.23;101787.16;1759440;80;21871;-65
2022/11/28 05:49:48;;;;;;;6.72;3.05;;;;;;;3.38;67.27;101791.41;1756915;79;21083;-65
2022/11/28 05:52:17;;;;;;;6.60;2.72;;;;;;;3.42;67.35;101784.36;1755416;80;21106;-65
2022/11/28 05:54:43;;;;;;;7.33;2.67;;;;;;;3.43;67.17;101786.93;1752807;79;21091;-65
2022/11/28 05:57:09;;;;;;;9.45;5.47;;;;;;;3.41;66.97;101790.45;1758123;80;21062;-65
2022/11/28 05:59:36;;;;;;;6.75;3.62;;;;;;;3.40;66.82;101795.27;1760900;80;21249;-65
2022/11/28 06:02:03;;;;;;;6.35;2.75;;;;;;;3.33;66.34;101803.69;1759741;80;21102;-63
2022/11/28 06:04:29;;;;;;;9.75;3.37;;;;;;;3.19;66.16;101803.19;1760872;80;21754;-65
2022/11/28 06:06:56;;;;;;;8.58;3.37;;;;;;;3.07;66.41;101809.11;1757808;80;20967;-65
2022/11/28 06:09:22;;;;;;;7.80;3.02;;;;;;;3.06;66.61;101808.72;1755671;80;21058;-64
2022/11/28 06:11:49;;;;;;;9.55;3.70;;;;;;;3.03;66.56;101809.25;1762224;80;21242;-62
2022/11/28 06:14:15;;;;;;;7.95;5.65;;;;;;;2.99;66.77;101808.45;1766474;80;20979;-64
2022/11/28 06:16:42;;;;;;;6.35;2.80;;;;;;;2.90;66.96;101819.09;1770330;80;20995;-64
2022/11/28 06:19:12;;;;;;;6.17;3.05;;;;;;;2.92;66.98;101811.65;1767892;80;21094;-64
2022/11/28 06:21:38;;;;;;;7.08;3.12;;;;;;;3.05;66.93;101816.11;1756707;80;21524;-64
2022/11/28 06:24:06;;;;;;;6.17;2.37;;;;;;;3.11;67.02;101812.48;1766986;80;22346;-64
2022/11/28 06:26:33;;;;;;;10.45;5.90;;;;;;;3.18;67.23;101811.88;1765177;80;21601;-66
2022/11/28 06:29:00;;;;;;;10.63;4.55;;;;;;;3.24;67.33;101811.72;1763039;79;21145;-65
2022/11/28 06:31:28;;;;;;;8.50;4.58;;;;;;;3.32;67.48;101818.88;1763447;80;21038;-65
2022/11/28 06:33:56;;;;;;;10.53;7.22;;;;;;;3.38;67.42;101814.83;1762692;80;21101;-66
2022/11/28 06:36:24;;;;;;;8.10;3.40;;;;;;;3.42;67.10;101826.84;1725995;82;21131;-67
2022/11/28 06:38:53;;;;;;;9.70;4.10;;;;;;;3.44;67.08;101821.59;1764770;80;21008;-66
2022/11/28 06:41:19;;;;;;;7.55;3.80;;;;;;;3.44;66.92;101815.09;1763087;80;21519;-67
2022/11/28 06:43:46;;;;;;;6.72;3.47;;;;;;;3.43;66.81;101819.87;1701581;83;21554;-65
2022/11/28 06:46:14;;;;;;;6.30;2.65;;;;;;;3.42;66.60;101822.94;1703856;83;21650;-63
2022/11/28 06:48:40;;;;;;;6.83;2.70;;;;;;;3.47;66.32;101821.06;1691788;83;21056;-67
2022/11/28 06:51:07;;;;;;;5.85;2.45;;;;;;;3.54;66.18;101819.99;1711176;83;21048;-66
2022/11/28 06:53:34;;;;;;;8.15;2.90;;;;;;;3.58;66.16;101815.58;1755455;80;21027;-64
2022/11/28 06:56:10;;;;;;;9.38;5.75;;;;;;;3.57;66.10;101812.56;1739613;80;21078;-65
2022/11/28 06:58:36;;;;;;;7.78;3.35;;;;;;;3.56;66.06;101806.94;1728218;81;21117;-63
2022/11/28 07:01:12;;;;;;;6.60;3.15;;;;;;;3.53;65.97;101806.59;1738839;80;21242;-63
2022/11/28 07:03:39;;;;;;;6.37;3.50;;;;;;;3.49;65.93;101804.95;1736516;81;21034;-63
2022/11/28 07:06:06;;;;;;;7.80;3.77;;;;;;;3.44;65.92;101799.02;1743475;81;21125;-65
2022/11/28 07:08:33;;;;;;;8.18;4.25;;;;;;;3.40;65.92;101808.28;1748950;80;21650;-66
2022/11/28 07:11:16;;;;;;;8.30;4.12;;;;;;;3.34;65.96;101804.92;1740024;80;21510;-64
2022/11/28 07:13:44;;;;;;;9.20;3.45;;;;;;;3.39;65.95;101805.26;1676223;83;21279;-64
2022/11/28 07:16:17;;;;;;;6.20;2.98;;;;;;;3.41;65.93;101799.56;1684710;83;21066;-64
2022/11/28 07:18:44;;;;;;;6.58;3.45;;;;;;;3.46;65.99;101805.48;1742080;82;21046;-63
2022/11/28 07:21:13;;;;;;;7.85;3.67;;;;;;;3.44;66.08;101813.34;1745666;80;21011;-64
2022/11/28 07:23:39;;;;;;;7.08;3.08;;;;;;;3.40;66.18;101816.09;1743760;80;21079;-66
2022/11/28 07:26:06;;;;;;;7.78;4.08;;;;;;;3.39;66.42;101823.02;1745557;80;21232;-65
2022/11/28 07:28:33;;;;;;;7.33;3.47;;;;;;;3.35;66.41;101826.16;1744660;81;21050;-66
2022/11/28 07:31:06;;;;;;;6.65;3.25;;;;;;;3.34;66.49;101828.80;1737525;80;21027;-65
2022/11/28 07:33:40;;;;;;;12.70;7.58;;;;;;;3.35;66.63;101832.66;1735996;80;21054;-67
2022/11/28 07:36:13;;;;;;;7.58;3.30;;;;;;;3.38;66.66;101838.24;1685547;83;21039;-65
2022/11/28 07:38:40;;;;;;;8.68;2.95;;;;;;;3.40;66.72;101835.60;1683604;83;21251;-65
2022/11/28 07:41:09;;;;;;;6.12;2.80;;;;;;;3.49;66.62;101834.03;1683053;83;21066;-65
2022/11/28 07:43:36;;;;;;;6.90;3.15;;;;;;;3.58;66.59;101838.13;1743333;80;21105;-66
2022/11/28 07:46:07;;;;;;;11.18;4.22;;;;;;;3.64;66.58;101841.42;1738323;81;21082;-64
2022/11/28 07:48:35;;;;;;;12.95;6.87;;;;;;;3.66;66.65;101842.22;1736391;80;21562;-62
2022/11/28 07:51:10;;;;;;;8.70;3.60;;;;;;;3.66;66.64;101834.41;1739354;81;21163;-68
2022/11/28 07:53:37;;;;;;;10.68;4.42;;;;;;;3.68;66.59;101839.16;1736421;81;21050;-65
2022/11/28 07:56:08;;;;;;;9.23;4.60;;;;;;;3.68;66.47;101838.28;1759537;80;21004;-64
2022/11/28 07:58:35;;;;;;;14.13;8.20;;;;;;;3.67;66.36;101833.98;1763199;80;21098;-64
2022/11/28 08:01:13;;;;;;;7.75;3.90;;;;;;;3.66;66.45;101834.88;1763733;79;21180;-66
2022/11/28 08:03:39;;;;;;;10.20;4.37;;;;;;;3.68;66.42;101841.76;1766319;80;21148;-65
2022/11/28 08:06:07;;;;;;;14.03;7.70;;;;;;;3.67;66.27;101838.73;1766823;79;21086;-64
2022/11/28 08:08:34;;;;;;;7.95;3.40;;;;;;;3.67;66.14;101842.64;1761783;79;21555;-64
2022/11/28 08:11:02;;;;;;;10.05;3.52;;;;;;;3.71;66.00;101842.10;1756588;80;21277;-64
2022/11/28 08:13:30;;;;;;;7.42;3.42;;;;;;;3.81;65.84;101834.44;1760226;79;21062;-63
2022/11/28 08:15:56;;;;;;;12.25;6.05;;;;;;;3.80;65.85;101836.66;1763281;79;21223;-62
2022/11/28 08:18:23;;;;;;;6.47;3.25;;;;;;;3.85;66.05;101836.07;1766507;79;21079;-63
2022/11/28 08:20:50;;;;;;;9.83;4.20;;;;;;;3.94;66.18;101836.25;1768380;80;21046;-64
2022/11/28 08:23:16;;;;;;;9.23;5.97;;;;;;;4.03;65.73;101830.75;1766254;80;21034;-67
2022/11/28 08:25:43;;;;;;;7.05;3.20;;;;;;;4.08;65.72;101834.53;1765740;80;20998;-67
2022/11/28 08:28:10;;;;;;;10.43;6.50;;;;;;;4.09;65.41;101828.44;1768806;79;21292;-66
2022/11/28 08:30:37;;;;;;;8.60;3.45;;;;;;;4.05;65.47;101828.11;1767239;79;20951;-66
2022/11/28 08:33:03;;;;;;;6.78;3.10;;;;;;;4.06;65.54;101833.73;1758812;80;21106;-65
2022/11/28 08:35:30;;;;;;;9.88;5.60;;;;;;;4.05;65.61;101838.53;1761088;80;21077;-65
2022/11/28 08:37:56;;;;;;;7.10;2.87;;;;;;;4.03;65.64;101835.97;1763563;80;21481;-65
2022/11/28 08:40:23;;;;;;;10.03;5.30;;;;;;;4.03;65.58;101843.78;1763284;80;21290;-65
2022/11/28 08:42:49;;;;;;;9.20;2.75;;;;;;;4.08;65.37;101840.63;1767173;79;21019;-65
2022/11/28 08:45:16;;;;;;;7.67;3.02;;;;;;;4.12;65.35;101833.56;1777249;79;21136;-65
2022/11/28 08:47:42;;;;;;;8.38;4.90;;;;;;;4.18;65.67;101829.91;1771259;79;21624;-65
2022/11/28 08:50:09;;;;;;;7.90;4.40;;;;;;;4.21;65.86;101831.97;1766580;79;21014;-65
2022/11/28 08:52:36;;;;;;;5.03;2.05;;;;;;;4.28;65.74;101825.66;1770150;80;21222;-63
2022/11/28 08:55:03;;;;;;;10.53;4.45;;;;;;;4.24;65.71;101829.73;1764229;79;21054;-63
2022/11/28 08:57:29;;;;;;;9.53;4.15;;;;;;;4.14;65.95;101825.24;1752101;80;21548;-62
2022/11/28 08:59:56;;;;;;;7.03;4.03;;;;;;;4.11;66.17;101827.94;1759534;79;21567;-63
2022/11/28 09:02:22;;;;;;;7.05;4.10;;;;;;;4.12;66.17;101824.45;1756212;79;21622;-64
2022/11/28 09:04:49;;;;;;;4.25;1.50;;;;;;;4.10;66.07;101836.64;1759127;79;21142;-65
2022/11/28 09:07:16;;;;;;;4.75;1.95;;;;;;;4.08;65.92;101833.23;1761640;79;21046;-65
2022/11/28 09:09:43;;;;;;;6.33;3.45;;;;;;;4.05;66.04;101828.11;1760248;79;21055;-64
2022/11/28 09:12:09;;;;;;;5.87;1.82;;;;;;;4.06;66.05;101826.77;1765422;79;21593;-62
2022/11/28 09:14:37;;;;;;;5.05;2.15;;;;;;;4.15;65.77;101826.09;1765665;79;21079;-64
2022/11/28 09:17:04;;;;;;;6.15;3.40;;;;;;;4.26;65.14;101829.23;1765889;79;21818;-76
2022/11/28 09:19:31;;;;;;;4.08;1.32;;;;;;;4.33;65.03;101838.55;1763711;79;21528;-69
2022/11/28 09:21:57;;;;;;;8.35;3.85;;;;;;;4.34;65.12;101835.06;1764653;79;21599;-73
2022/11/28 09:24:24;;;;;;;4.83;2.00;;;;;;;4.41;64.59;101829.21;1763026;79;21110;-64
2022/11/28 09:26:50;;;;;;;7.70;4.28;;;;;;;4.40;64.42;101826.19;1764550;79;21028;-70
2022/11/28 09:29:17;;;;;;;6.33;2.10;;;;;;;4.33;64.55;101820.78;1764240;79;21133;-66
2022/11/28 09:31:44;;;;;;;4.95;2.17;;;;;;;4.25;64.35;101808.84;1763371;79;21031;-64
2022/11/28 09:34:10;;;;;;;8.10;4.42;;;;;;;4.18;64.24;101801.25;1769270;79;21066;-67
2022/11/28 09:36:37;;;;;;;8.38;3.12;;;;;;;4.02;64.00;101803.48;1771710;79;21019;-68
2022/11/28 09:39:03;;;;;;;5.03;2.35;;;;;;;3.88;64.28;101803.44;1767217;79;21035;-73
2022/11/28 09:41:50;;;;;;;5.55;2.75;;;;;;;3.81;64.57;101811.46;1759220;79;21249;-73
2022/11/28 09:44:27;;;;;;;4.28;2.08;;;;;;;3.72;64.88;101819.09;1750895;80;21016;-73
2022/11/28 09:46:58;;;;;;;7.90;3.62;;;;;;;3.70;65.17;101822.19;1750734;80;21446;-73
2022/11/28 09:49:33;;;;;;;5.53;2.22;;;;;;;3.80;65.28;101818.85;1754349;80;21058;-73
2022/11/28 09:52:31;;;;;;;7.33;2.85;;;;;;;3.94;65.23;101826.29;1761971;80;21531;-73
2022/11/28 09:55:06;;;;;;;5.47;2.67;;;;;;;4.02;65.29;101821.71;1767741;80;21169;-72
2022/11/28 09:57:41;;;;;;;6.05;3.08;;;;;;;4.10;65.24;101814.49;1763922;80;21086;-73
2022/11/28 10:00:15;;;;;;;;;;;;;;;4.11;65.03;101813.61;1769752;80;21035;-72
2022/11/28 10:03:15;;;;;;;6.10;2.80;;;;;;;4.13;65.23;101806.59;1771342;79;20193;-72
2022/11/28 10:06:02;;;;;;;8.83;3.12;;;;;;;4.13;65.08;101810.50;1746994;79;21090;-72
2022/11/28 10:09:02;;;;;;;6.70;3.40;;;;;;;4.12;65.09;101812.72;1769438;79;21225;-73
2022/11/28 10:11:52;;;;;;;8.20;3.60;;;;;;;4.08;64.94;101813.27;1767642;79;21081;-72
2022/11/28 10:14:50;;;;;;;7.50;3.42;;;;;;;4.06;64.99;101810.29;1770938;79;21019;-73
2022/11/28 10:17:25;;;;;;;8.13;3.72;;;;;;;4.03;65.12;101811.22;1772008;80;21515;-73
2022/11/28 10:19:59;;;;;;;6.80;3.30;;;;;;;4.01;65.26;101819.53;1767416;80;21073;-72
2022/11/28 10:22:48;;;;;;;8.93;4.10;;;;;;;4.04;65.21;101809.03;1768507;79;21225;-73
2022/11/28 10:25:20;;;;;;;7.72;3.58;;;;;;;4.12;64.86;101810.55;1756003;80;21067;-73
2022/11/28 10:27:47;;;;;;;11.88;7.67;;;;;;;4.22;64.63;101807.63;1756895;80;21057;-73
2022/11/28 10:30:31;;;;;;;12.50;4.78;;;;;;;4.31;64.62;101811.70;1765505;80;21587;-73
2022/11/28 10:33:18;;;;;;;9.65;4.10;;;;;;;4.24;64.81;101813.64;1780774;80;21080;-73
2022/11/28 10:35:49;;;;;;;12.35;4.50;;;;;;;4.30;64.68;101810.44;1753372;80;21145;-73
2022/11/28 10:38:17;;;;;;;9.88;7.10;;;;;;;4.27;64.79;101807.50;1766896;80;21007;-73
2022/11/28 10:40:51;;;;;;;10.88;3.80;;;;;;;4.27;64.71;101813.55;1763271;80;20996;-73
2022/11/28 10:43:29;;;;;;;7.92;3.87;;;;;;;4.27;64.71;101815.31;1767463;80;21069;-73
2022/11/28 10:46:16;;;;;;;7.55;4.00;;;;;;;4.20;64.57;101809.86;1766241;80;21035;-72
2022/11/28 10:48:51;;;;;;;7.83;3.87;;;;;;;4.12;64.62;101807.51;1776617;80;21109;-73
2022/11/28 10:52:00;;;;;;;7.60;2.93;;;;;;;4.03;64.85;101813.82;1771724;80;21622;-73
2022/11/28 10:54:59;;;;;;;9.50;4.87;;;;;;;3.98;65.19;101817.02;1768561;80;21094;-73
2022/11/28 10:57:40;;;;;;;7.30;3.40;;;;;;;3.94;65.09;101806.76;1769119;80;21543;-74
2022/11/28 11:00:14;;;;;;;7.08;3.47;;;;;;;3.95;64.96;101809.32;1729170;82;21095;-74
2022/11/28 11:02:54;;;;;;;7.85;3.52;;;;;;;3.98;65.11;101805.30;1730642;80;21178;-73
2022/11/28 11:05:27;;;;;;;8.98;5.35;;;;;;;4.03;65.14;101812.52;1711217;83;21144;-73
2022/11/28 11:08:11;;;;;;;11.78;7.47;;;;;;;4.07;65.16;101812.01;1719114;83;21733;-73
2022/11/28 11:11:08;;;;;;;11.48;8.00;;;;;;;4.07;65.48;101812.85;1689456;83;21059;-73
2022/11/28 11:14:00;;;;;;;9.80;4.28;;;;;;;4.12;65.46;101819.23;1706719;83;21097;-73
2022/11/28 11:16:49;;;;;;;12.15;5.10;;;;;;;4.12;65.52;101816.63;1707470;83;21839;-74
2022/11/28 11:19:24;;;;;;;13.28;8.63;;;;;;;4.11;65.52;101811.46;1691007;83;21103;-72
2022/11/28 11:22:01;;;;;;;9.30;4.90;;;;;;;4.06;65.56;101811.13;1709392;83;21090;-73
2022/11/28 11:24:27;;;;;;;14.75;9.60;;;;;;;4.07;65.76;101812.01;1710840;83;21061;-73
2022/11/28 11:26:54;;;;;;;10.28;4.30;;;;;;;4.05;65.81;101804.66;1711494;81;21074;-71
2022/11/28 11:29:34;;;;;;;10.10;4.55;;;;;;;4.05;65.72;101809.87;1687118;83;21355;-72
2022/11/28 11:32:04;;;;;;;10.15;4.97;;;;;;;4.11;65.71;101812.77;1708054;81;21050;-72
2022/11/28 11:34:39;;;;;;;15.25;9.20;;;;;;;4.17;65.58;101807.34;1714405;81;21047;-72
2022/11/28 11:37:34;;;;;;;10.38;4.45;;;;;;;4.18;65.49;101809.91;1714453;83;21797;-71
2022/11/28 11:40:01;;;;;;;14.70;6.30;;;;;;;4.16;65.66;101805.20;1724523;81;21071;-72
2022/11/28 11:42:30;;;;;;;18.27;12.45;;;;;;;4.14;65.79;101806.16;1720857;83;21464;-73
2022/11/28 11:44:59;;;;;;;12.40;6.47;;;;;;;4.12;65.79;101812.72;1715537;83;21010;-71
2022/11/28 11:47:42;;;;;;;11.43;6.25;;;;;;;4.11;65.78;101803.65;1709721;83;21084;-67
2022/11/28 11:50:18;;;;;;;11.80;7.10;;;;;;;4.05;65.80;101794.25;1710459;83;21133;-68
2022/11/28 11:53:07;;;;;;;14.33;7.47;;;;;;;3.97;65.64;101801.43;1711733;83;21125;-65
2022/11/28 11:55:51;;;;;;;21.73;12.43;;;;;;;3.82;65.91;101799.70;1718174;81;21184;-68
2022/11/28 11:58:23;;;;;;;10.88;5.25;;;;;;;3.74;66.19;101797.77;1696499;84;21103;-70
2022/11/28 12:00:50;;;;;;;17.30;11.60;;;;;;;3.69;66.29;101790.53;1699131;82;21034;-70